createdAt,value
2018-02-03T00:01:18.935Z,72.27
2018-02-03T00:03:54.507Z,72.86
2018-02-03T00:09:05.550Z,73.26
2018-02-03T00:11:36.509Z,72.98
2018-02-03T00:14:09.681Z,71.84
2018-02-03T00:16:43.067Z,72.45
2018-02-03T00:19:17.895Z,71.83
2018-02-03T00:21:51.495Z,71.45
2018-02-03T00:24:25.607Z,72.46
2018-02-03T00:26:58.278Z,72.45
2018-02-03T00:29:32.042Z,72.58
2018-02-03T00:32:05.083Z,72.27
2018-02-03T00:34:38.699Z,72.52
2018-02-03T00:37:14.817Z,72.96
2018-02-03T00:39:49.851Z,73.28
2018-02-03T00:42:24.170Z,73.34
2018-02-03T00:44:58.212Z,73.10
2018-02-03T00:52:49.437Z,72.79
2018-02-03T00:55:24.061Z,72.84
2018-02-03T00:58:04.469Z,73.66
2018-02-03T01:00:37.523Z,73.62
2018-02-03T01:03:11.480Z,73.39
2018-02-03T01:05:45.312Z,73.93
2018-02-03T01:10:54.137Z,73.16
2018-02-03T01:13:28.613Z,73.51
2018-02-03T01:16:01.705Z,73.57
2018-02-03T01:18:36.458Z,73.31
2018-02-03T01:21:09.689Z,73.07
2018-02-03T01:26:22.502Z,72.99
2018-02-03T01:28:55.447Z,73.19
2018-02-03T01:31:27.831Z,73.34
2018-02-03T01:34:03.531Z,73.90
2018-02-03T01:36:37.133Z,73.90
2018-02-03T01:39:10.636Z,73.54
2018-02-03T01:41:45.778Z,73.75
2018-02-03T01:46:58.167Z,73.67
2018-02-03T01:49:31.076Z,73.65
2018-02-03T01:54:42.347Z,73.97
2018-02-03T02:05:06.756Z,74.26
2018-02-03T02:07:38.855Z,74.46
2018-02-03T02:10:07.867Z,74.83
2018-02-03T02:12:36.916Z,74.18
2018-02-03T02:15:06.052Z,73.41
2018-02-03T02:17:35.122Z,73.45
2018-02-03T02:20:04.159Z,73.35
2018-02-03T02:22:33.529Z,73.83
2018-02-03T02:25:02.570Z,74.07
2018-02-03T02:27:31.588Z,74.72
2018-02-03T02:30:01.313Z,74.29
2018-02-03T02:32:32.597Z,74.39
2018-02-03T02:35:01.992Z,74.17
2018-02-03T02:37:31.084Z,74.08
2018-02-03T02:40:00.110Z,73.76
2018-02-03T02:42:29.152Z,73.84
2018-02-03T02:44:58.498Z,73.87
2018-02-03T02:47:28.042Z,73.73
2018-02-03T02:49:57.083Z,74.59
2018-02-03T02:52:27.128Z,74.50
2018-02-03T02:54:56.149Z,75.57
2018-02-03T02:57:25.185Z,75.47
2018-02-03T02:59:54.219Z,75.72
2018-02-03T03:02:23.274Z,74.69
2018-02-03T03:04:52.318Z,75.23
2018-02-03T03:07:21.348Z,75.55
2018-02-03T03:09:50.395Z,76.05
2018-02-03T03:12:19.460Z,75.40
2018-02-03T03:14:48.524Z,75.97
2018-02-03T03:17:17.573Z,75.77
2018-02-03T03:19:46.610Z,76.47
2018-02-03T03:22:15.654Z,76.10
2018-02-03T03:24:44.709Z,76.17
2018-02-03T03:27:13.749Z,76.26
2018-02-03T03:29:42.785Z,75.74
2018-02-03T03:32:11.825Z,76.16
2018-02-03T03:34:40.861Z,76.01
2018-02-03T03:37:09.910Z,76.21
2018-02-03T03:39:38.941Z,76.00
2018-02-03T03:42:07.980Z,76.20
2018-02-03T03:44:37.025Z,76.04
2018-02-03T03:47:06.059Z,76.34
2018-02-03T03:49:36.081Z,76.88
2018-02-03T03:52:05.085Z,76.99
2018-02-03T03:54:34.130Z,76.31
2018-02-03T03:57:03.174Z,77.18
2018-02-03T03:59:32.210Z,76.96
2018-02-03T04:02:01.280Z,77.65
2018-02-03T04:04:30.334Z,77.32
2018-02-03T04:06:59.385Z,77.27
2018-02-03T04:09:28.505Z,77.52
2018-02-03T04:11:58.032Z,76.70
2018-02-03T04:16:07.690Z,77.73
2018-02-03T04:18:37.943Z,77.24
2018-02-03T04:21:06.957Z,77.57
2018-02-03T04:23:35.993Z,78.86
2018-02-03T04:26:05.017Z,78.99
2018-02-03T04:28:34.062Z,78.55
2018-02-03T04:31:03.100Z,78.59
2018-02-03T04:33:32.147Z,78.39
2018-02-03T04:36:01.187Z,78.24
2018-02-03T04:38:30.249Z,78.73
2018-02-03T04:40:59.269Z,79.19
2018-02-03T04:43:28.321Z,79.32
2018-02-03T04:45:57.353Z,79.88
2018-02-03T04:48:26.397Z,79.74
2018-02-03T04:53:43.577Z,79.71
2018-02-03T04:58:47.832Z,79.61
2018-02-03T05:01:16.856Z,80.03
2018-02-03T05:03:46.663Z,80.44
2018-02-03T05:06:15.787Z,79.33
2018-02-03T05:08:44.825Z,79.44
2018-02-03T05:11:13.869Z,79.52
2018-02-03T05:13:42.905Z,79.71
2018-02-03T05:16:11.956Z,79.81
2018-02-03T05:18:40.994Z,80.07
2018-02-03T05:21:10.050Z,80.19
2018-02-03T05:23:39.075Z,80.38
2018-02-03T05:26:08.109Z,79.54
2018-02-03T05:28:37.163Z,79.39
2018-02-03T05:31:06.201Z,80.13
2018-02-03T05:33:35.234Z,80.14
2018-02-03T05:36:04.281Z,80.23
2018-02-03T05:38:33.321Z,80.51
2018-02-03T05:41:02.349Z,80.82
2018-02-03T05:43:32.150Z,81.51
2018-02-03T05:46:01.201Z,81.60
2018-02-03T05:48:30.233Z,81.96
2018-02-03T05:51:00.207Z,81.75
2018-02-03T05:56:06.254Z,80.99
2018-02-03T06:01:15.466Z,80.66
2018-02-03T06:03:46.482Z,80.64
2018-02-03T06:06:24.313Z,81.12
2018-02-03T06:08:54.314Z,80.67
2018-02-03T06:11:37.735Z,81.19
2018-02-03T06:14:06.789Z,81.33
2018-02-03T06:19:13.117Z,81.36
2018-02-03T06:21:45.919Z,81.65
2018-02-03T06:24:23.906Z,81.73
2018-02-03T06:26:52.957Z,82.60
2018-02-03T06:29:37.393Z,82.00
2018-02-03T06:32:06.434Z,81.47
2018-02-03T06:37:11.670Z,80.63
2018-02-03T06:39:40.757Z,80.95
2018-02-03T06:42:09.786Z,80.65
2018-02-03T06:44:38.822Z,80.48
2018-02-03T06:47:08.761Z,79.54
2018-02-03T06:49:37.809Z,79.46
2018-02-03T06:52:06.853Z,79.50
2018-02-03T06:54:35.921Z,78.60
2018-02-03T06:57:04.936Z,78.99
2018-02-03T06:59:33.973Z,79.13
2018-02-03T07:02:03.002Z,79.30
2018-02-03T07:04:32.087Z,79.22
2018-02-03T07:07:01.121Z,78.24
2018-02-03T07:09:30.166Z,78.61
2018-02-03T07:11:59.226Z,79.37
2018-02-03T07:14:28.342Z,80.05
2018-02-03T07:16:57.401Z,80.36
2018-02-03T07:19:26.441Z,80.69
2018-02-03T07:21:55.484Z,80.14
2018-02-03T07:24:24.534Z,79.20
2018-02-03T07:26:53.739Z,79.21
2018-02-03T07:29:22.821Z,79.80
2018-02-03T07:31:51.865Z,79.51
2018-02-03T07:34:21.852Z,80.01
2018-02-03T07:36:50.922Z,79.70
2018-02-03T07:39:21.077Z,79.80
2018-02-03T07:41:51.301Z,80.35
2018-02-03T07:44:20.337Z,80.27
2018-02-03T07:46:49.380Z,79.83
2018-02-03T07:49:18.433Z,79.33
2018-02-03T07:51:47.622Z,79.10
2018-02-03T07:54:16.770Z,78.87
2018-02-03T07:56:45.812Z,79.96
2018-02-03T07:59:21.532Z,79.59
2018-02-03T08:01:50.547Z,78.67
2018-02-03T08:04:19.628Z,79.46
2018-02-03T08:06:48.790Z,79.73
2018-02-03T08:09:17.829Z,80.33
2018-02-03T08:11:46.890Z,80.63
2018-02-03T08:14:15.927Z,80.33
2018-02-03T08:16:44.972Z,80.57
2018-02-03T08:19:14.018Z,80.48
2018-02-03T08:21:43.070Z,80.51
2018-02-03T08:24:12.122Z,79.80
2018-02-03T08:26:41.165Z,79.49
2018-02-03T08:29:10.210Z,79.71
2018-02-03T08:31:39.257Z,78.68
2018-02-03T08:34:08.301Z,78.25
2018-02-03T08:36:37.402Z,78.20
2018-02-03T08:39:06.416Z,78.77
2018-02-03T08:41:35.808Z,78.28
2018-02-03T08:44:04.859Z,78.45
2018-02-03T08:49:09.074Z,78.10
2018-02-03T08:51:38.109Z,77.28
2018-02-03T08:54:07.152Z,78.08
2018-02-03T08:56:36.194Z,76.82
2018-02-03T08:59:05.217Z,77.31
2018-02-03T09:01:34.258Z,76.85
2018-02-03T09:04:03.298Z,77.21
2018-02-03T09:06:32.338Z,76.88
2018-02-03T09:09:01.431Z,76.19
2018-02-03T09:11:30.433Z,76.60
2018-02-03T09:13:59.474Z,77.07
2018-02-03T09:16:28.504Z,77.75
2018-02-03T09:18:57.574Z,77.75
2018-02-03T09:21:26.630Z,78.02
2018-02-03T09:23:55.729Z,77.44
2018-02-03T09:26:24.761Z,76.47
2018-02-03T09:28:53.772Z,77.10
2018-02-03T09:31:22.841Z,76.53
2018-02-03T09:33:51.876Z,76.94
2018-02-03T09:36:20.921Z,76.57
2018-02-03T09:38:49.964Z,76.61
2018-02-03T09:41:18.993Z,77.32
2018-02-03T09:43:48.030Z,77.45
2018-02-03T09:46:17.107Z,76.56
2018-02-03T09:48:46.155Z,76.06
2018-02-03T09:51:15.204Z,77.36
2018-02-03T09:53:44.237Z,77.29
2018-02-03T09:56:13.281Z,77.57
2018-02-03T09:58:42.317Z,76.93
2018-02-03T10:01:11.365Z,76.76
2018-02-03T10:03:40.405Z,76.28
2018-02-03T10:06:14.977Z,76.15
2018-02-03T10:08:44.123Z,75.33
2018-02-03T10:11:13.126Z,76.59
2018-02-03T10:13:42.223Z,76.34
2018-02-03T10:16:11.225Z,74.82
2018-02-03T10:21:15.495Z,74.75
2018-02-03T10:23:44.658Z,73.73
2018-02-03T10:26:13.678Z,74.80
2018-02-03T10:28:42.754Z,74.28
2018-02-03T10:31:11.745Z,73.99
2018-02-03T10:33:42.650Z,72.80
2018-02-03T10:36:11.653Z,73.63
2018-02-03T10:38:40.678Z,74.64
2018-02-03T10:43:44.958Z,75.35
2018-02-03T10:46:13.984Z,76.00
2018-02-03T10:48:43.029Z,76.14
2018-02-03T10:51:12.058Z,76.50
2018-02-03T10:53:41.085Z,75.57
2018-02-03T10:56:10.125Z,75.48
2018-02-03T10:58:39.166Z,76.71
2018-02-03T11:01:10.032Z,76.50
2018-02-03T11:03:39.088Z,75.66
2018-02-03T11:08:43.530Z,75.56
2018-02-03T11:13:48.030Z,73.79
2018-02-03T11:16:17.214Z,74.23
2018-02-03T11:18:47.269Z,73.64
2018-02-03T11:21:16.449Z,73.78
2018-02-03T11:23:45.476Z,72.84
2018-02-03T11:26:14.519Z,72.42
2018-02-03T11:28:43.594Z,73.12
2018-02-03T11:31:12.640Z,72.94
2018-02-03T11:33:42.767Z,73.57
2018-02-03T11:36:11.816Z,73.76
2018-02-03T11:38:42.069Z,72.30
2018-02-03T11:41:11.101Z,71.21
2018-02-03T11:46:15.465Z,72.29
2018-02-03T11:48:44.506Z,76.59
2018-02-03T11:51:13.550Z,82.86
2018-02-03T11:53:44.152Z,85.57
2018-02-03T11:56:13.217Z,82.21
2018-02-03T11:58:42.950Z,79.07
2018-02-03T12:01:11.997Z,79.42
2018-02-03T12:03:41.862Z,75.60
2018-02-03T12:06:10.921Z,73.25
2018-02-03T12:08:41.136Z,73.74
2018-02-03T12:11:18.676Z,70.68
2018-02-03T12:13:47.706Z,71.51
2018-02-03T12:16:16.738Z,67.42
2018-02-03T12:18:45.785Z,60.40
2018-02-03T12:23:49.988Z,58.25
2018-02-03T12:26:19.013Z,58.66
2018-02-03T12:28:48.045Z,62.18
2018-02-03T12:31:17.076Z,64.13
2018-02-03T12:33:46.110Z,66.00
2018-02-03T12:36:15.223Z,67.86
2018-02-03T12:38:44.226Z,67.68
2018-02-03T12:41:13.260Z,68.41
2018-02-03T12:43:43.096Z,67.58
2018-02-03T12:48:47.333Z,69.54
2018-02-03T12:51:16.364Z,69.36
2018-02-03T12:53:51.004Z,69.78
2018-02-03T12:56:20.009Z,69.94
2018-02-03T12:58:49.037Z,69.93
2018-02-03T13:01:18.068Z,71.08
2018-02-03T13:03:48.076Z,69.48
2018-02-03T13:06:17.134Z,69.98
2018-02-03T13:08:46.160Z,70.93
2018-02-03T13:11:15.239Z,70.55
2018-02-03T13:13:44.264Z,69.10
2018-02-03T13:16:13.315Z,67.55
2018-02-03T13:18:43.289Z,66.78
2018-02-03T13:21:12.321Z,67.65
2018-02-03T13:23:42.081Z,68.57
2018-02-03T13:26:11.122Z,69.48
2018-02-03T13:28:41.927Z,70.21
2018-02-03T13:31:10.952Z,70.57
2018-02-03T13:33:41.083Z,70.25
2018-02-03T13:36:12.939Z,68.85
2018-02-03T13:38:42.049Z,69.53
2018-02-03T13:41:12.033Z,69.02
2018-02-03T13:43:41.069Z,69.79
2018-02-03T13:46:11.140Z,69.20
2018-02-03T13:48:44.159Z,70.40
2018-02-03T13:51:13.282Z,68.54
2018-02-03T13:53:42.321Z,69.49
2018-02-03T13:56:12.684Z,70.00
2018-02-03T13:58:41.716Z,70.37
2018-02-03T14:01:11.692Z,70.54
2018-02-03T14:03:40.716Z,70.28
2018-02-03T14:06:10.968Z,70.34
2018-02-03T14:08:40.011Z,69.94
2018-02-03T14:11:09.241Z,69.32
2018-02-03T14:13:38.247Z,68.89
2018-02-03T14:16:07.313Z,69.32
2018-02-03T14:18:37.792Z,69.70
2018-02-03T14:21:06.830Z,70.46
2018-02-03T14:23:35.861Z,70.23
2018-02-03T14:26:11.159Z,69.67
2018-02-03T14:28:40.210Z,69.65
2018-02-03T14:31:09.898Z,71.42
2018-02-03T14:33:38.960Z,70.32
2018-02-03T14:36:08.004Z,70.28
2018-02-03T14:38:37.086Z,69.52
2018-02-03T14:41:07.025Z,70.61
2018-02-03T14:43:36.087Z,70.75
2018-02-03T14:46:05.112Z,70.89
2018-02-03T14:48:34.192Z,71.05
2018-02-03T14:51:04.136Z,70.65
2018-02-03T14:53:40.743Z,69.88
2018-02-03T14:56:13.452Z,70.24
2018-02-03T14:58:46.989Z,70.29
2018-02-03T15:03:57.000Z,69.89
2018-02-03T15:09:06.584Z,70.79
2018-02-03T15:11:39.798Z,70.10
2018-02-03T15:14:13.657Z,71.50
2018-02-03T15:16:47.029Z,70.78
2018-02-03T15:19:16.048Z,71.03
2018-02-03T15:21:45.136Z,71.50
2018-02-03T15:24:14.178Z,71.54
2018-02-03T15:26:43.223Z,71.95
2018-02-03T15:31:47.635Z,72.53
2018-02-03T15:34:16.668Z,73.64
2018-02-03T15:36:45.730Z,73.41
2018-02-03T15:39:14.909Z,72.69
2018-02-03T15:41:44.778Z,74.12
2018-02-03T15:44:14.438Z,73.38
2018-02-03T15:49:19.650Z,73.69
2018-02-03T15:51:48.688Z,74.53
2018-02-03T15:56:53.161Z,74.75
2018-02-03T15:59:23.212Z,74.51
2018-02-03T16:01:52.230Z,74.84
2018-02-03T16:04:26.108Z,75.09
2018-02-03T16:06:55.129Z,74.90
2018-02-03T16:09:24.181Z,75.29
2018-02-03T16:11:53.214Z,76.48
2018-02-03T16:14:22.303Z,76.58
2018-02-03T16:16:51.359Z,75.74
2018-02-03T16:19:20.408Z,76.20
2018-02-03T16:21:49.440Z,76.33
2018-02-03T16:24:18.490Z,76.93
2018-02-03T16:26:47.525Z,76.53
2018-02-03T16:29:18.790Z,76.10
2018-02-03T16:31:48.917Z,75.82
2018-02-03T16:34:17.974Z,75.76
2018-02-03T16:36:48.981Z,75.43
2018-02-03T16:41:54.464Z,74.93
2018-02-03T16:44:27.856Z,78.51
2018-02-03T16:46:58.998Z,82.59
2018-02-03T16:49:28.046Z,85.23
2018-02-03T16:52:04.454Z,85.91
2018-02-03T16:54:33.480Z,87.17
2018-02-03T16:59:37.893Z,86.82
2018-02-03T17:02:09.123Z,86.22
2018-02-03T17:04:39.123Z,86.25
2018-02-03T17:07:13.504Z,85.83
2018-02-03T17:09:42.567Z,86.08
2018-02-03T17:12:15.171Z,87.07
2018-02-03T17:14:44.219Z,86.88
2018-02-03T17:17:13.646Z,86.34
2018-02-03T17:19:42.688Z,86.31
2018-02-03T17:22:19.453Z,85.53
2018-02-03T17:27:24.591Z,86.58
2018-02-03T17:29:54.560Z,87.45
2018-02-03T17:32:27.368Z,88.07
2018-02-03T17:35:00.255Z,87.93
2018-02-03T17:37:34.854Z,88.53
2018-02-03T17:40:03.925Z,89.31
2018-02-03T17:42:32.951Z,88.33
2018-02-03T17:45:07.488Z,88.10
2018-02-03T17:47:36.545Z,87.84
2018-02-03T17:50:10.969Z,88.37
2018-02-03T17:52:39.985Z,88.68
2018-02-03T17:55:09.235Z,89.46
2018-02-03T17:57:44.682Z,88.79
2018-02-03T18:00:14.684Z,88.68
2018-02-03T18:02:43.793Z,89.04
2018-02-03T18:05:13.836Z,88.24
2018-02-03T18:07:43.786Z,89.25
2018-02-03T18:10:13.453Z,88.78
2018-02-03T18:17:58.929Z,87.96
2018-02-03T18:20:38.914Z,88.05
2018-02-03T18:23:07.981Z,88.05
2018-02-03T18:25:41.466Z,88.14
2018-02-03T18:30:46.761Z,88.62
2018-02-03T18:33:19.457Z,87.89
2018-02-03T18:35:49.469Z,88.50
2018-02-03T18:38:19.458Z,89.46
2018-02-03T18:40:48.501Z,89.01
2018-02-03T18:43:18.455Z,88.71
2018-02-03T18:45:50.602Z,88.74
2018-02-03T18:48:19.674Z,88.06
2018-02-03T18:50:48.732Z,88.50
2018-02-03T18:53:25.242Z,88.86
2018-02-03T18:55:54.272Z,87.63
2018-02-03T18:58:25.233Z,87.62
2018-02-03T19:00:54.274Z,88.84
2018-02-03T19:03:23.310Z,88.89
2018-02-03T19:05:52.346Z,89.21
2018-02-03T19:08:21.415Z,89.21
2018-02-03T19:13:25.663Z,89.29
2018-02-03T19:15:58.623Z,88.87
2018-02-03T19:18:27.683Z,88.54
2018-02-03T19:21:00.178Z,87.58
2018-02-03T19:23:29.221Z,86.85
2018-02-03T19:25:59.155Z,87.18
2018-02-03T19:28:28.205Z,88.13
2018-02-03T19:30:57.250Z,88.67
2018-02-03T19:33:26.302Z,89.36
2018-02-03T19:36:01.018Z,89.83
2018-02-03T19:41:06.594Z,88.30
2018-02-03T19:43:39.373Z,87.36
2018-02-03T19:46:08.452Z,87.89
2018-02-03T19:48:45.322Z,88.51
2018-02-03T19:51:14.388Z,87.82
2018-02-03T19:56:19.646Z,88.26
2018-02-03T19:58:50.630Z,88.22
2018-02-03T20:01:19.682Z,89.26
2018-02-03T20:03:52.197Z,89.67
2018-02-03T20:06:21.255Z,90.01
2018-02-03T20:09:04.489Z,89.88
2018-02-03T20:11:42.535Z,89.05
2018-02-03T20:14:11.594Z,89.36
2018-02-03T20:16:45.464Z,89.73
2018-02-03T20:19:28.213Z,89.86
2018-02-03T20:22:04.485Z,90.04
2018-02-03T20:24:34.516Z,89.80
2018-02-03T20:29:40.390Z,90.19
2018-02-03T20:32:15.148Z,89.47
2018-02-03T20:34:44.207Z,90.23
2018-02-03T20:37:16.979Z,90.10
2018-02-03T20:39:46.026Z,89.66
2018-02-03T20:42:32.534Z,89.36
2018-02-03T20:47:37.757Z,89.69
2018-02-03T20:50:34.860Z,89.49
2018-02-03T20:55:46.200Z,88.84
2018-02-03T20:58:15.272Z,89.05
2018-02-03T21:00:44.330Z,89.08
2018-02-03T21:03:14.335Z,88.62
2018-02-03T21:05:43.377Z,88.52
2018-02-03T21:11:11.276Z,87.69
2018-02-03T21:13:40.344Z,88.39
2018-02-03T21:16:13.390Z,87.75
2018-02-03T21:18:42.831Z,88.12
2018-02-03T21:21:12.560Z,87.76
2018-02-03T21:23:41.611Z,87.62
2018-02-03T21:28:49.888Z,88.37
2018-02-03T21:34:24.090Z,87.97
2018-02-03T21:36:54.858Z,87.80
2018-02-03T21:39:27.650Z,87.97
2018-02-03T21:42:14.304Z,87.99
2018-02-03T21:44:44.256Z,88.32
2018-02-03T21:47:15.206Z,88.36
2018-02-03T21:49:44.253Z,87.99
2018-02-03T21:52:22.192Z,88.21
2018-02-03T21:54:51.243Z,87.92
2018-02-03T21:57:25.157Z,87.50
2018-02-03T22:00:22.198Z,87.94
2018-02-03T22:02:57.103Z,87.73
2018-02-03T22:08:05.547Z,87.82
2018-02-03T22:10:34.601Z,87.89
2018-02-03T22:13:05.579Z,87.47
2018-02-03T22:15:34.634Z,87.21
2018-02-03T22:18:05.276Z,87.13
2018-02-03T22:20:34.298Z,87.09
2018-02-03T22:23:06.014Z,86.94
2018-02-03T22:25:35.093Z,87.15
2018-02-03T22:28:07.842Z,87.17
2018-02-03T22:30:36.900Z,87.13
2018-02-03T22:33:19.562Z,87.11
2018-02-03T22:35:48.627Z,87.51
2018-02-03T22:38:29.662Z,87.29
2018-02-03T22:40:59.574Z,88.06
2018-02-03T22:43:28.712Z,87.94
2018-02-03T22:46:01.119Z,88.91
2018-02-03T22:48:31.074Z,88.79
2018-02-03T22:51:00.174Z,89.14
2018-02-03T22:53:30.125Z,89.56
2018-02-03T22:56:01.045Z,89.56
2018-02-03T22:58:33.563Z,89.55
2018-02-03T23:01:10.014Z,89.21
2018-02-03T23:03:39.060Z,89.46
2018-02-03T23:08:48.938Z,90.08
2018-02-03T23:11:17.949Z,90.50
2018-02-03T23:13:47.006Z,90.45
2018-02-03T23:16:16.068Z,89.61
2018-02-03T23:18:45.117Z,89.91
2018-02-03T23:21:14.162Z,90.15
2018-02-03T23:23:43.266Z,90.75
2018-02-03T23:26:13.219Z,91.14
2018-02-03T23:28:42.265Z,91.53
2018-02-03T23:31:11.332Z,91.59
2018-02-03T23:33:40.372Z,91.19
2018-02-03T23:36:10.332Z,91.98
2018-02-03T23:38:39.395Z,91.61
2018-02-03T23:41:08.453Z,92.16
2018-02-03T23:43:37.490Z,92.18
2018-02-03T23:46:09.594Z,91.71
2018-02-03T23:48:38.665Z,91.02
2018-02-03T23:53:47.885Z,90.76
2018-02-03T23:56:25.848Z,90.57
